Terminal Aerodrome Forecast
Issued by NWS

Home | Current Version | Previous Version | Text Only | Print | Product List | Glossary On
Versions: 1 2 3 4 5 6 7 8 9 10 11 12 13 14 15 16 17 18 19 20 21 22 23
000
FTUS46 KSEW 010000 AAA
TAFBFI
TAF AMD
KBFI 010048Z 0101/0124 VRB03KT P6SM BKN010 BKN100 OVC200
     FM010300 VRB03KT P6SM SCT013 BKN100 OVC200
     FM010600 VRB03KT P6SM SCT050 OVC100
     FM011200 13005KT P6SM -RA SCT035 OVC050
     FM011800 16008KT P6SM -RA SCT025 OVC040
     FM012000 18008KT 6SM -RA BR OVC025=

USA.gov is the U.S. government's official web portal to all federal, state and local government web resources and services.